createdAt,value
2019-03-19T00:00:53.924Z,21.80
2019-03-19T00:03:24.906Z,21.80
2019-03-19T00:05:54.775Z,21.80
2019-03-19T00:08:24.687Z,21.80
2019-03-19T00:10:54.555Z,21.90
2019-03-19T00:13:24.469Z,21.90
2019-03-19T00:15:54.482Z,21.90
2019-03-19T00:18:24.403Z,21.90
2019-03-19T00:20:54.282Z,21.90
2019-03-19T00:23:24.192Z,21.90
2019-03-19T00:25:54.110Z,22.00
2019-03-19T00:28:25.120Z,21.90
2019-03-19T00:30:55.070Z,22.00
2019-03-19T00:33:25.011Z,22.00
2019-03-19T00:35:54.931Z,22.00
2019-03-19T00:38:24.808Z,22.00
2019-03-19T00:40:54.728Z,22.00
2019-03-19T00:43:24.661Z,22.00
2019-03-19T00:45:54.602Z,22.00
2019-03-19T00:48:24.449Z,22.00
2019-03-19T00:50:54.315Z,22.00
2019-03-19T00:53:24.248Z,22.00
2019-03-19T00:55:55.140Z,22.00
2019-03-19T00:58:25.079Z,22.00
2019-03-19T01:00:55.019Z,22.00
2019-03-19T01:03:24.956Z,22.00
2019-03-19T01:05:54.799Z,22.00
2019-03-19T01:08:24.718Z,22.00
2019-03-19T01:10:55.681Z,22.00
2019-03-19T01:13:25.545Z,22.00
2019-03-19T01:15:55.456Z,22.00
2019-03-19T01:18:25.319Z,22.00
2019-03-19T01:20:55.236Z,22.00
2019-03-19T01:23:25.100Z,22.00
2019-03-19T01:25:55.900Z,22.00
2019-03-19T01:28:25.983Z,22.00
2019-03-19T01:30:55.895Z,22.00
2019-03-19T01:33:25.835Z,22.00
2019-03-19T01:35:55.678Z,22.00
2019-03-19T01:38:25.612Z,22.00
2019-03-19T01:40:55.481Z,22.00
2019-03-19T01:43:25.320Z,22.00
2019-03-19T01:45:55.183Z,22.00
2019-03-19T01:48:25.035Z,22.00
2019-03-19T01:50:54.887Z,22.00
2019-03-19T01:53:25.684Z,22.00
2019-03-19T01:56:04.735Z,22.00
2019-03-19T01:58:27.100Z,22.00
2019-03-19T02:00:56.963Z,22.00
2019-03-19T02:03:26.800Z,22.00
2019-03-19T02:05:56.672Z,22.00
2019-03-19T02:08:26.591Z,22.00
2019-03-19T02:10:56.667Z,22.00
2019-03-19T02:13:26.573Z,22.00
2019-03-19T02:15:56.510Z,22.00
2019-03-19T02:18:26.488Z,22.00
2019-03-19T02:20:56.341Z,22.00
2019-03-19T02:23:26.280Z,22.00
2019-03-19T02:25:56.116Z,22.00
2019-03-19T02:28:25.988Z,22.00
2019-03-19T02:30:55.905Z,22.00
2019-03-19T02:33:25.866Z,22.00
2019-03-19T02:35:55.773Z,22.00
2019-03-19T02:38:25.712Z,22.00
2019-03-19T02:40:55.626Z,22.00
2019-03-19T02:43:26.536Z,22.00
2019-03-19T02:45:56.376Z,22.00
2019-03-19T02:48:26.251Z,22.00
2019-03-19T02:50:56.166Z,22.00
2019-03-19T02:53:29.384Z,22.00
2019-03-19T02:55:57.644Z,22.00
2019-03-19T02:58:27.586Z,22.00
2019-03-19T03:00:57.506Z,22.10
2019-03-19T03:03:27.446Z,22.10
2019-03-19T03:05:57.292Z,22.00
2019-03-19T03:08:28.226Z,22.10
2019-03-19T03:10:58.148Z,22.10
2019-03-19T03:13:28.004Z,22.10
2019-03-19T03:15:57.962Z,22.10
2019-03-19T03:18:27.824Z,22.10
2019-03-19T03:20:57.664Z,22.10
2019-03-19T03:23:27.533Z,22.10
2019-03-19T03:25:57.497Z,22.10
2019-03-19T03:28:27.502Z,22.10
2019-03-19T03:30:57.423Z,22.10
2019-03-19T03:33:27.375Z,22.10
2019-03-19T03:35:57.303Z,22.10
2019-03-19T03:38:27.256Z,22.10
2019-03-19T03:40:57.176Z,22.10
2019-03-19T03:43:27.044Z,22.10
2019-03-19T03:45:56.966Z,22.10
2019-03-19T03:48:26.905Z,22.10
2019-03-19T03:50:56.750Z,22.10
2019-03-19T03:53:26.619Z,22.10
2019-03-19T03:55:56.558Z,22.10
2019-03-19T03:58:26.476Z,22.10
2019-03-19T04:00:56.421Z,22.10
2019-03-19T04:03:26.270Z,22.10
2019-03-19T04:05:56.784Z,22.10
2019-03-19T04:08:26.658Z,22.10
2019-03-19T04:10:56.519Z,22.10
2019-03-19T04:13:26.539Z,22.10
2019-03-19T04:15:57.549Z,22.10
2019-03-19T04:18:27.469Z,22.10
2019-03-19T04:20:57.336Z,22.10
2019-03-19T04:23:27.456Z,22.20
2019-03-19T04:25:57.475Z,22.20
2019-03-19T04:28:27.416Z,22.20
2019-03-19T04:30:57.353Z,22.20
2019-03-19T04:33:27.200Z,22.20
2019-03-19T04:35:57.144Z,22.20
2019-03-19T04:38:26.992Z,22.20
2019-03-19T04:40:56.867Z,22.20
2019-03-19T04:43:26.779Z,22.20
2019-03-19T04:45:57.727Z,22.20
2019-03-19T04:48:27.644Z,22.20
2019-03-19T04:50:57.516Z,22.20
2019-03-19T04:53:28.423Z,22.20
2019-03-19T04:55:58.296Z,22.20
2019-03-19T04:58:28.211Z,22.20
2019-03-19T05:00:58.112Z,22.20
2019-03-19T05:03:28.020Z,22.20
2019-03-19T05:05:59.616Z,22.10
2019-03-19T05:08:29.435Z,22.20
2019-03-19T05:10:59.391Z,22.20
2019-03-19T05:13:29.320Z,22.10
2019-03-19T05:15:59.268Z,22.20
2019-03-19T05:18:31.291Z,22.20
2019-03-19T05:21:00.747Z,22.10
2019-03-19T05:23:30.587Z,22.10
2019-03-19T05:26:00.457Z,22.10
2019-03-19T05:28:30.321Z,22.10
2019-03-19T05:31:00.160Z,22.10
2019-03-19T05:33:30.024Z,22.10
2019-03-19T05:35:59.868Z,22.10
2019-03-19T05:38:29.734Z,22.00
2019-03-19T05:40:59.656Z,22.00
2019-03-19T05:43:29.661Z,22.00
2019-03-19T05:45:59.511Z,22.00
2019-03-19T05:48:29.376Z,22.00
2019-03-19T05:50:59.312Z,22.00
2019-03-19T05:53:29.176Z,21.90
2019-03-19T05:55:59.018Z,21.90
2019-03-19T05:58:28.879Z,21.90
2019-03-19T06:00:58.725Z,21.90
2019-03-19T06:03:28.592Z,21.90
2019-03-19T06:05:58.431Z,21.90
2019-03-19T06:08:28.360Z,21.90
2019-03-19T06:10:58.232Z,21.90
2019-03-19T06:13:30.200Z,21.90
2019-03-19T06:15:59.266Z,21.90
2019-03-19T06:18:35.106Z,21.90
2019-03-19T06:21:00.496Z,21.90
2019-03-19T06:23:30.373Z,21.80
2019-03-19T06:26:00.221Z,21.90
2019-03-19T06:28:30.083Z,22.00
2019-03-19T06:31:00.046Z,22.00
2019-03-19T06:33:29.992Z,22.10
2019-03-19T06:36:00.902Z,22.10
2019-03-19T06:38:31.848Z,22.10
2019-03-19T06:41:01.767Z,22.10
2019-03-19T06:43:31.616Z,22.10
2019-03-19T06:46:01.482Z,22.00
2019-03-19T06:48:31.320Z,22.00
2019-03-19T06:51:01.221Z,21.90
2019-03-19T06:53:31.068Z,21.90
2019-03-19T06:56:00.951Z,21.90
2019-03-19T06:58:30.795Z,21.90
2019-03-19T07:01:00.732Z,21.90
2019-03-19T07:03:30.655Z,21.90
2019-03-19T07:06:00.516Z,21.70
2019-03-19T07:08:30.371Z,21.60
2019-03-19T07:11:00.376Z,21.60
2019-03-19T07:13:30.225Z,21.70
2019-03-19T07:16:00.107Z,21.70
2019-03-19T07:18:30.030Z,21.70
2019-03-19T07:20:59.903Z,21.80
2019-03-19T07:23:29.833Z,21.80
2019-03-19T07:25:59.768Z,21.80
2019-03-19T07:28:29.624Z,21.80
2019-03-19T07:30:59.572Z,21.70
2019-03-19T07:33:29.516Z,21.70
2019-03-19T07:35:59.379Z,21.60
2019-03-19T07:38:29.318Z,21.60
2019-03-19T07:40:59.252Z,21.60
2019-03-19T07:43:29.088Z,21.60
2019-03-19T07:45:58.956Z,21.50
2019-03-19T07:48:28.799Z,21.50
2019-03-19T07:50:58.741Z,21.50
2019-03-19T07:53:28.655Z,21.50
2019-03-19T07:55:58.583Z,21.40
2019-03-19T07:58:40.491Z,21.40
2019-03-19T08:00:59.994Z,21.40
2019-03-19T08:03:29.919Z,21.30
2019-03-19T08:05:59.780Z,21.40
2019-03-19T08:08:29.698Z,21.30
2019-03-19T08:10:59.562Z,21.30
2019-03-19T08:13:29.485Z,21.20
2019-03-19T08:15:59.539Z,21.20
2019-03-19T08:18:29.387Z,21.20
2019-03-19T08:20:59.251Z,21.10
2019-03-19T08:23:29.168Z,21.10
2019-03-19T08:25:59.039Z,21.20
2019-03-19T08:28:28.958Z,21.10
2019-03-19T08:30:58.820Z,21.10
2019-03-19T08:33:28.669Z,21.20
2019-03-19T08:36:08.794Z,21.10
2019-03-19T08:38:30.101Z,21.10
2019-03-19T08:40:59.945Z,21.10
2019-03-19T08:43:29.809Z,21.10
2019-03-19T08:45:59.658Z,21.00
2019-03-19T08:48:29.520Z,21.00
2019-03-19T08:50:59.374Z,21.00
2019-03-19T08:53:29.308Z,21.00
2019-03-19T08:56:01.172Z,21.00
2019-03-19T08:58:31.140Z,21.00
2019-03-19T09:01:00.990Z,21.10
2019-03-19T09:03:30.994Z,21.00
2019-03-19T09:06:00.840Z,21.10
2019-03-19T09:08:30.707Z,21.10
2019-03-19T09:11:00.578Z,21.10
2019-03-19T09:13:30.493Z,21.00
2019-03-19T09:16:00.495Z,21.10
2019-03-19T09:18:30.356Z,21.00
2019-03-19T09:21:00.281Z,21.00
2019-03-19T09:23:30.125Z,21.00
2019-03-19T09:25:59.991Z,21.00
2019-03-19T09:28:29.849Z,21.00
2019-03-19T09:30:59.710Z,20.90
2019-03-19T09:33:29.556Z,20.90
2019-03-19T09:35:59.424Z,20.90
2019-03-19T09:38:29.342Z,20.90
2019-03-19T09:40:59.223Z,20.90
2019-03-19T09:43:29.068Z,20.90
2019-03-19T09:45:59.009Z,20.80
2019-03-19T09:48:28.847Z,20.80
2019-03-19T09:50:58.719Z,20.80
2019-03-19T09:53:28.657Z,20.80
2019-03-19T09:55:58.522Z,20.80
2019-03-19T09:58:28.611Z,20.80
2019-03-19T10:00:58.555Z,20.80
2019-03-19T10:03:28.469Z,20.80
2019-03-19T10:05:58.345Z,20.80
2019-03-19T10:08:28.232Z,20.80
2019-03-19T10:10:58.104Z,20.80
2019-03-19T10:13:28.031Z,20.70
2019-03-19T10:15:57.965Z,20.80
2019-03-19T10:18:27.906Z,20.80
2019-03-19T10:20:57.828Z,20.80
2019-03-19T10:23:27.749Z,20.70
2019-03-19T10:25:58.785Z,20.70
2019-03-19T10:28:28.708Z,20.60
2019-03-19T10:30:58.646Z,20.70
2019-03-19T10:33:28.492Z,20.70
2019-03-19T10:35:58.359Z,20.70
2019-03-19T10:38:28.235Z,20.60
2019-03-19T10:40:58.172Z,20.60
2019-03-19T10:43:28.017Z,20.60
2019-03-19T10:45:57.884Z,20.50
2019-03-19T10:48:27.731Z,20.50
2019-03-19T10:50:57.597Z,20.50
2019-03-19T10:53:27.509Z,20.50
2019-03-19T10:55:58.464Z,20.40
2019-03-19T10:58:28.448Z,20.40
2019-03-19T11:00:58.389Z,20.40
2019-03-19T11:03:28.581Z,20.40
2019-03-19T11:05:58.519Z,20.40
2019-03-19T11:08:28.356Z,20.40
2019-03-19T11:10:58.382Z,20.40
2019-03-19T11:13:28.371Z,20.40
2019-03-19T11:15:58.231Z,20.40
2019-03-19T11:18:28.152Z,20.30
2019-03-19T11:20:58.092Z,20.40
2019-03-19T11:23:28.016Z,20.30
2019-03-19T11:25:57.962Z,20.30
2019-03-19T11:28:27.878Z,20.30
2019-03-19T11:30:57.748Z,20.30
2019-03-19T11:33:30.567Z,20.30
2019-03-19T11:36:00.505Z,20.30
2019-03-19T11:38:31.415Z,20.30
2019-03-19T11:41:01.423Z,20.20
2019-03-19T11:43:31.341Z,20.20
2019-03-19T11:46:01.209Z,20.20
2019-03-19T11:48:31.056Z,20.20
2019-03-19T11:51:00.926Z,20.20
2019-03-19T11:53:30.853Z,20.20
2019-03-19T11:56:00.792Z,20.20
2019-03-19T11:58:30.637Z,20.20
2019-03-19T12:01:02.144Z,20.20
2019-03-19T12:03:32.072Z,20.20
2019-03-19T12:06:01.940Z,20.20
2019-03-19T12:08:31.919Z,20.10
2019-03-19T12:11:01.779Z,20.10
2019-03-19T12:13:31.692Z,20.10
2019-03-19T12:16:01.560Z,20.10
2019-03-19T12:18:31.571Z,20.10
2019-03-19T12:21:01.653Z,20.10
2019-03-19T12:23:31.541Z,20.10
2019-03-19T12:26:01.478Z,20.10
2019-03-19T12:28:39.211Z,20.00
2019-03-19T12:31:03.056Z,20.00
2019-03-19T12:33:40.330Z,20.00
2019-03-19T12:36:04.710Z,20.00
2019-03-19T12:38:34.708Z,20.00
2019-03-19T12:41:04.769Z,20.00
2019-03-19T12:43:34.612Z,20.00
2019-03-19T12:46:04.612Z,19.90
2019-03-19T12:48:34.618Z,19.90
2019-03-19T12:51:04.691Z,19.90
2019-03-19T12:53:34.541Z,19.90
2019-03-19T12:56:04.424Z,19.90
2019-03-19T12:58:34.347Z,19.90
2019-03-19T13:01:04.430Z,19.90
2019-03-19T13:03:34.414Z,19.90
2019-03-19T13:06:04.489Z,19.90
2019-03-19T13:08:34.484Z,19.90
2019-03-19T13:11:04.564Z,19.90
2019-03-19T13:13:34.412Z,20.00
2019-03-19T13:16:04.416Z,20.00
2019-03-19T13:18:34.362Z,20.00
2019-03-19T13:21:04.444Z,20.00
2019-03-19T13:23:34.279Z,20.00
2019-03-19T13:26:04.212Z,20.00
2019-03-19T13:28:34.180Z,19.90
2019-03-19T13:31:04.178Z,19.90
2019-03-19T13:33:34.019Z,19.90
2019-03-19T13:36:04.255Z,19.90
2019-03-19T13:38:34.169Z,19.90
2019-03-19T13:41:04.100Z,19.80
2019-03-19T13:43:34.093Z,19.80
2019-03-19T13:46:04.164Z,19.80
2019-03-19T13:48:34.081Z,19.70
2019-03-19T13:51:04.215Z,19.70
2019-03-19T13:53:34.126Z,19.70
2019-03-19T13:56:05.277Z,19.70
2019-03-19T13:58:35.199Z,19.70
2019-03-19T14:01:05.214Z,19.70
2019-03-19T14:03:35.130Z,19.70
2019-03-19T14:06:05.136Z,19.70
2019-03-19T14:08:35.045Z,19.70
2019-03-19T14:11:04.989Z,19.70
2019-03-19T14:13:34.900Z,19.70
2019-03-19T14:16:04.998Z,19.70
2019-03-19T14:18:34.840Z,19.70
2019-03-19T14:21:04.849Z,19.80
2019-03-19T14:23:34.859Z,19.80
2019-03-19T14:26:04.963Z,19.80
2019-03-19T14:28:34.884Z,19.80
2019-03-19T14:31:08.959Z,19.80
2019-03-19T14:33:36.318Z,19.90
2019-03-19T14:36:06.255Z,19.90
2019-03-19T14:38:46.555Z,19.90
2019-03-19T14:41:07.802Z,19.90
2019-03-19T14:43:37.644Z,19.90
2019-03-19T14:46:07.647Z,19.90
2019-03-19T14:48:37.501Z,19.80
2019-03-19T14:51:07.517Z,19.80
2019-03-19T14:53:37.495Z,19.80
2019-03-19T14:56:07.366Z,19.80
2019-03-19T14:58:37.220Z,19.80
2019-03-19T15:01:07.148Z,19.70
2019-03-19T15:03:37.079Z,19.70
2019-03-19T15:06:07.019Z,19.70
2019-03-19T15:08:36.860Z,19.70
2019-03-19T15:11:06.726Z,19.60
2019-03-19T15:13:36.656Z,19.60
2019-03-19T15:16:06.642Z,19.60
2019-03-19T15:18:37.796Z,19.60
2019-03-19T15:21:07.801Z,19.60
2019-03-19T15:23:37.642Z,19.60
2019-03-19T15:26:07.594Z,19.60
2019-03-19T15:28:37.520Z,19.60
2019-03-19T15:31:07.369Z,19.50
2019-03-19T15:33:37.376Z,19.50
2019-03-19T15:36:07.218Z,19.50
2019-03-19T15:38:37.086Z,19.50
2019-03-19T15:41:06.999Z,19.50
2019-03-19T15:43:36.932Z,19.50
2019-03-19T15:46:06.842Z,19.50
2019-03-19T15:48:36.708Z,19.50
2019-03-19T15:51:06.624Z,19.50
2019-03-19T15:53:36.486Z,19.50
2019-03-19T15:56:06.381Z,19.50
2019-03-19T15:58:36.351Z,19.50
2019-03-19T16:01:06.349Z,19.50
2019-03-19T16:03:36.360Z,19.50
2019-03-19T16:06:06.213Z,19.50
2019-03-19T16:08:36.152Z,19.40
2019-03-19T16:11:06.012Z,19.40
2019-03-19T16:13:35.952Z,19.40
2019-03-19T16:16:05.796Z,19.40
2019-03-19T16:18:36.742Z,19.40
2019-03-19T16:21:06.719Z,19.40
2019-03-19T16:23:36.661Z,19.30
2019-03-19T16:26:06.670Z,19.40
2019-03-19T16:28:36.603Z,19.30
2019-03-19T16:31:06.526Z,19.30
2019-03-19T16:33:36.541Z,19.30
2019-03-19T16:36:06.525Z,19.30
2019-03-19T16:38:36.404Z,19.30
2019-03-19T16:41:06.389Z,19.20
2019-03-19T16:43:36.344Z,19.20
2019-03-19T16:46:06.244Z,19.20
2019-03-19T16:48:36.111Z,19.20
2019-03-19T16:51:06.098Z,19.20
2019-03-19T16:53:36.055Z,19.20
2019-03-19T16:56:07.663Z,19.20
2019-03-19T16:58:37.773Z,19.10
2019-03-19T17:01:07.645Z,19.20
2019-03-19T17:03:37.665Z,19.20
2019-03-19T17:06:07.652Z,19.10
2019-03-19T17:08:37.666Z,19.20
2019-03-19T17:11:07.504Z,19.10
2019-03-19T17:13:38.542Z,19.10
2019-03-19T17:16:08.384Z,19.10
2019-03-19T17:18:38.297Z,19.10
2019-03-19T17:21:08.211Z,19.10
2019-03-19T17:23:38.276Z,19.10
2019-03-19T17:26:08.196Z,19.10
2019-03-19T17:28:38.140Z,19.00
2019-03-19T17:31:08.134Z,19.00
2019-03-19T17:33:38.073Z,19.10
2019-03-19T17:36:08.075Z,19.00
2019-03-19T17:38:37.989Z,19.00
2019-03-19T17:41:07.904Z,19.00
2019-03-19T17:43:37.839Z,19.00
2019-03-19T17:46:07.693Z,19.00
2019-03-19T17:48:37.555Z,19.00
2019-03-19T17:51:07.518Z,19.00
2019-03-19T17:53:37.432Z,19.00
2019-03-19T17:56:09.843Z,19.00
2019-03-19T17:58:39.115Z,19.00
2019-03-19T18:01:17.090Z,19.00
2019-03-19T18:03:40.630Z,18.90
2019-03-19T18:06:10.544Z,19.00
2019-03-19T18:08:40.486Z,19.00
2019-03-19T18:11:10.397Z,19.00
2019-03-19T18:13:40.267Z,19.00
2019-03-19T18:16:10.188Z,18.90
2019-03-19T18:18:40.129Z,19.00
2019-03-19T18:21:09.993Z,18.90
2019-03-19T18:23:39.876Z,18.90
2019-03-19T18:26:09.728Z,18.90
2019-03-19T18:28:39.671Z,18.90
2019-03-19T18:31:09.593Z,18.90
2019-03-19T18:33:39.540Z,18.90
2019-03-19T18:36:09.531Z,18.90
2019-03-19T18:38:39.468Z,18.90
2019-03-19T18:41:09.316Z,18.90
2019-03-19T18:43:40.258Z,18.90
2019-03-19T18:46:10.182Z,18.90
2019-03-19T18:48:40.197Z,18.90
2019-03-19T18:51:10.125Z,18.90
2019-03-19T18:53:39.992Z,18.90
2019-03-19T18:56:09.980Z,18.90
2019-03-19T18:58:40.004Z,18.90
2019-03-19T19:01:10.036Z,18.90
2019-03-19T19:03:40.388Z,18.90
2019-03-19T19:06:10.419Z,18.80
2019-03-19T19:08:40.298Z,18.80
2019-03-19T19:11:10.326Z,18.80
2019-03-19T19:13:40.385Z,18.80
2019-03-19T19:16:10.573Z,18.80
2019-03-19T19:18:41.006Z,18.80
2019-03-19T19:21:11.930Z,18.80
2019-03-19T19:23:43.046Z,18.80
2019-03-19T19:26:13.877Z,18.80
2019-03-19T19:28:44.454Z,18.80
2019-03-19T19:31:15.974Z,18.80
2019-03-19T19:33:47.216Z,18.80
2019-03-19T19:36:18.774Z,18.80
2019-03-19T19:38:50.383Z,18.80
2019-03-19T19:41:22.029Z,18.80
2019-03-19T19:43:53.785Z,18.80
2019-03-19T19:46:25.560Z,18.70
2019-03-19T19:48:57.198Z,18.70
2019-03-19T19:51:30.067Z,18.70
2019-03-19T19:54:02.022Z,18.70
2019-03-19T19:56:33.943Z,18.70
2019-03-19T19:59:05.440Z,18.70
2019-03-19T20:01:37.215Z,18.70
2019-03-19T20:04:08.846Z,18.70
2019-03-19T20:06:40.564Z,18.70
2019-03-19T20:09:12.285Z,18.70
2019-03-19T20:11:44.150Z,18.70
2019-03-19T20:14:15.713Z,18.70
2019-03-19T20:16:47.491Z,18.70
2019-03-19T20:19:19.089Z,18.70
2019-03-19T20:21:50.858Z,18.70
2019-03-19T20:24:22.326Z,18.60
2019-03-19T20:26:54.482Z,18.70
2019-03-19T20:29:26.253Z,18.70
2019-03-19T20:31:58.008Z,18.70
2019-03-19T20:34:29.598Z,18.70
2019-03-19T20:37:01.403Z,18.60
2019-03-19T20:39:32.652Z,18.70
2019-03-19T20:42:24.644Z,18.70
2019-03-19T20:44:56.069Z,18.70
2019-03-19T20:47:27.754Z,18.70
2019-03-19T20:49:59.480Z,18.70
2019-03-19T20:52:32.211Z,18.70
2019-03-19T20:55:03.678Z,18.60
2019-03-19T20:57:35.391Z,18.60
2019-03-19T21:00:09.310Z,18.70
2019-03-19T21:02:41.141Z,18.60
2019-03-19T21:05:21.365Z,18.60
2019-03-19T21:07:53.319Z,18.70
2019-03-19T21:10:26.729Z,18.70
2019-03-19T21:12:57.834Z,18.70
2019-03-19T21:15:31.925Z,18.60
2019-03-19T21:18:02.213Z,18.70
2019-03-19T21:20:32.287Z,18.60
2019-03-19T21:23:02.420Z,18.60
2019-03-19T21:25:32.561Z,18.60
2019-03-19T21:28:13.228Z,18.60
2019-03-19T21:30:34.500Z,18.60
2019-03-19T21:33:04.640Z,18.60
2019-03-19T21:35:34.513Z,18.60
2019-03-19T21:38:04.452Z,18.60
2019-03-19T21:40:34.372Z,18.60
2019-03-19T21:43:04.312Z,18.60
2019-03-19T21:45:34.243Z,18.60
2019-03-19T21:48:04.244Z,18.60
2019-03-19T21:50:34.233Z,18.60
2019-03-19T21:53:04.173Z,18.60
2019-03-19T21:55:34.025Z,18.60
2019-03-19T21:58:04.204Z,18.60
2019-03-19T22:00:34.114Z,18.60
2019-03-19T22:03:04.121Z,18.60
2019-03-19T22:05:34.135Z,18.60
2019-03-19T22:08:04.020Z,18.60
2019-03-19T22:10:33.879Z,18.30
2019-03-19T22:13:03.996Z,18.20
2019-03-19T22:15:34.052Z,18.20
2019-03-19T22:18:04.160Z,18.20
2019-03-19T22:20:34.150Z,18.30
2019-03-19T22:23:04.147Z,18.30
2019-03-19T22:25:34.104Z,18.40
2019-03-19T22:28:04.122Z,18.40
2019-03-19T22:30:34.015Z,18.40
2019-03-19T22:33:03.961Z,18.40
2019-03-19T22:35:33.827Z,18.40
2019-03-19T22:38:03.846Z,18.40
2019-03-19T22:40:33.701Z,18.50
2019-03-19T22:43:03.579Z,18.50
2019-03-19T22:45:34.526Z,18.50
2019-03-19T22:48:04.549Z,18.50
2019-03-19T22:50:34.408Z,18.40
2019-03-19T22:53:04.293Z,18.50
2019-03-19T22:55:34.224Z,18.50
2019-03-19T22:58:04.271Z,18.50
2019-03-19T23:00:35.767Z,18.50
2019-03-19T23:03:07.440Z,18.50
2019-03-19T23:05:37.515Z,18.50
2019-03-19T23:08:07.532Z,18.50
2019-03-19T23:10:37.456Z,18.60
2019-03-19T23:13:07.477Z,18.40
2019-03-19T23:15:37.420Z,18.40
2019-03-19T23:18:07.367Z,18.40
2019-03-19T23:20:37.288Z,18.40
2019-03-19T23:23:07.211Z,18.40
2019-03-19T23:25:37.094Z,18.50
2019-03-19T23:28:06.953Z,18.50
2019-03-19T23:30:36.833Z,18.50
2019-03-19T23:33:06.859Z,18.60
2019-03-19T23:35:36.813Z,18.50
2019-03-19T23:38:06.993Z,18.60
2019-03-19T23:40:37.145Z,18.60
2019-03-19T23:43:07.009Z,18.60
2019-03-19T23:45:37.026Z,18.60
2019-03-19T23:48:06.963Z,18.60
2019-03-19T23:50:36.912Z,18.60
2019-03-19T23:53:06.847Z,18.60
2019-03-19T23:55:36.912Z,18.60
2019-03-19T23:58:06.868Z,18.60
